createdAt,value
2023-04-25T00:00:00.374Z,64.25
2023-04-25T00:05:03.370Z,64.61
2023-04-25T00:10:06.042Z,65.06
2023-04-25T00:15:08.120Z,66.53
2023-04-25T00:20:10.696Z,66.18
2023-04-25T00:25:12.289Z,65.98
2023-04-25T00:30:14.471Z,66.19
2023-04-25T00:35:16.106Z,65.98
2023-04-25T00:40:17.756Z,66.92
2023-04-25T00:45:19.853Z,67.45
2023-04-25T00:50:21.906Z,67.56
2023-04-25T00:55:23.587Z,67.65
2023-04-25T01:00:25.197Z,68.07
2023-04-25T01:05:26.765Z,67.95
2023-04-25T01:10:28.553Z,67.53
2023-04-25T01:15:30.271Z,67.35
2023-04-25T01:20:33.658Z,67.51
2023-04-25T01:25:35.620Z,67.46
2023-04-25T01:30:37.381Z,66.70
2023-04-25T01:35:41.307Z,66.77
2023-04-25T01:40:43.100Z,66.46
2023-04-25T01:45:44.889Z,66.58
2023-04-25T01:50:49.383Z,66.78
2023-04-25T01:55:51.023Z,66.35
2023-04-25T02:00:55.912Z,66.72
2023-04-25T02:06:01.210Z,66.33
2023-04-25T02:11:04.621Z,66.57
2023-04-25T02:16:14.257Z,66.37
2023-04-25T02:21:16.252Z,66.20
2023-04-25T02:26:18.856Z,65.90
2023-04-25T02:31:20.639Z,65.65
2023-04-25T02:36:22.247Z,65.75
2023-04-25T02:41:24.172Z,65.51
2023-04-25T02:46:38.379Z,65.30
2023-04-25T02:51:41.106Z,66.15
2023-04-25T02:56:43.172Z,66.48
2023-04-25T03:01:49.562Z,67.27
2023-04-25T03:06:51.725Z,66.08
2023-04-25T03:11:55.924Z,66.54
2023-04-25T03:16:58.572Z,66.11
2023-04-25T03:22:00.267Z,66.35
2023-04-25T03:27:02.359Z,66.58
2023-04-25T03:32:04.221Z,66.73
2023-04-25T03:37:05.873Z,66.66
2023-04-25T03:42:11.979Z,67.03
2023-04-25T03:47:13.583Z,67.38
2023-04-25T03:52:15.314Z,67.46
2023-04-25T03:57:17.127Z,67.85
2023-04-25T04:02:19.264Z,67.48
2023-04-25T04:07:21.690Z,67.60
2023-04-25T04:12:27.739Z,67.72
2023-04-25T04:17:29.535Z,67.08
2023-04-25T04:22:32.276Z,68.16
2023-04-25T04:27:39.077Z,67.11
2023-04-25T04:32:54.874Z,66.85
2023-04-25T04:37:57.287Z,66.63
2023-04-25T04:43:01.727Z,67.19
2023-04-25T04:48:09.584Z,68.22
2023-04-25T04:53:33.363Z,66.11
2023-04-25T04:58:53.414Z,66.37
2023-04-25T05:04:18.374Z,65.21
2023-04-25T05:09:38.390Z,64.88
2023-04-25T05:14:39.948Z,63.62
2023-04-25T05:20:05.174Z,63.74
2023-04-25T05:25:13.906Z,62.74
2023-04-25T05:30:40.799Z,62.05
2023-04-25T05:36:06.044Z,61.76
2023-04-25T05:41:08.348Z,59.84
2023-04-25T05:46:27.834Z,59.71
2023-04-25T05:51:57.653Z,58.60
2023-04-25T05:57:25.314Z,58.80
2023-04-25T06:02:28.173Z,57.17
2023-04-25T06:07:33.367Z,57.70
2023-04-25T06:12:35.069Z,56.40
2023-04-25T06:17:38.816Z,55.93
2023-04-25T06:22:41.403Z,55.55
2023-04-25T06:27:43.061Z,55.48
2023-04-25T06:32:44.954Z,55.07
2023-04-25T06:37:46.612Z,54.49
2023-04-25T06:42:48.309Z,54.47
2023-04-25T06:48:21.314Z,54.92
2023-04-25T06:53:23.202Z,54.66
2023-04-25T06:58:31.324Z,53.82
2023-04-25T07:03:44.634Z,53.45
2023-04-25T07:08:52.075Z,53.44
2023-04-25T07:13:54.342Z,53.02
2023-04-25T07:18:56.429Z,53.30
2023-04-25T07:23:58.610Z,52.68
2023-04-25T07:29:06.324Z,52.54
2023-04-25T07:34:09.019Z,51.55
2023-04-25T07:39:14.072Z,51.17
2023-04-25T07:44:16.242Z,52.39
2023-04-25T07:49:18.196Z,52.43
2023-04-25T07:54:20.287Z,51.96
2023-04-25T07:59:29.757Z,51.50
2023-04-25T08:04:33.495Z,50.53
2023-04-25T08:09:38.807Z,50.94
2023-04-25T08:14:45.335Z,50.96
2023-04-25T08:19:47.074Z,50.87
2023-04-25T08:24:58.145Z,51.86
2023-04-25T08:29:59.968Z,51.69
2023-04-25T08:35:01.634Z,50.89
2023-04-25T08:40:07.972Z,52.10
2023-04-25T08:45:18.845Z,52.31
2023-04-25T08:50:23.142Z,53.30
2023-04-25T08:55:27.295Z,53.15
2023-04-25T09:00:32.740Z,51.94
2023-04-25T09:05:35.346Z,52.78
2023-04-25T09:10:37.350Z,51.96
2023-04-25T09:15:53.172Z,51.10
2023-04-25T09:21:14.898Z,52.41
2023-04-25T09:26:21.475Z,52.25
2023-04-25T09:31:25.598Z,52.82
2023-04-25T09:36:31.679Z,53.63
2023-04-25T09:41:55.641Z,54.08
2023-04-25T09:46:58.071Z,54.34
2023-04-25T09:52:02.035Z,54.05
2023-04-25T09:57:16.945Z,53.42
2023-04-25T10:02:21.222Z,53.50
2023-04-25T10:07:27.636Z,53.47
2023-04-25T10:12:29.840Z,52.54
2023-04-25T10:17:32.611Z,52.57
2023-04-25T10:22:37.870Z,53.01
2023-04-25T10:27:40.507Z,54.08
2023-04-25T10:32:51.481Z,53.17
2023-04-25T10:38:13.494Z,53.99
2023-04-25T10:43:43.538Z,53.67
2023-04-25T10:48:55.997Z,53.87
2023-04-25T10:54:04.367Z,53.84
2023-04-25T10:59:16.713Z,54.96
2023-04-25T11:04:22.473Z,57.18
2023-04-25T11:09:25.347Z,56.78
2023-04-25T11:14:27.983Z,56.76
2023-04-25T11:19:30.014Z,56.74
2023-04-25T11:24:33.133Z,57.79
2023-04-25T11:29:35.686Z,59.11
2023-04-25T11:34:37.372Z,58.35
2023-04-25T11:39:39.107Z,57.66
2023-04-25T11:44:41.679Z,57.16
2023-04-25T11:49:43.273Z,55.22
2023-04-25T11:54:45.602Z,53.58
2023-04-25T11:59:47.446Z,53.46
2023-04-25T12:04:49.309Z,52.97
2023-04-25T12:09:53.666Z,52.99
2023-04-25T12:14:56.173Z,54.88
2023-04-25T12:19:57.860Z,54.54
2023-04-25T12:24:59.501Z,54.21
2023-04-25T12:30:01.470Z,52.07
2023-04-25T12:35:03.158Z,51.73
2023-04-25T12:40:05.330Z,50.94
2023-04-25T12:45:07.505Z,50.09
2023-04-25T12:50:09.604Z,50.18
2023-04-25T12:55:11.213Z,49.56
2023-04-25T13:00:15.758Z,49.92
2023-04-25T13:05:17.356Z,50.18
2023-04-25T13:10:19.051Z,50.76
2023-04-25T13:15:21.044Z,51.63
2023-04-25T13:20:23.456Z,52.19
2023-04-25T13:25:25.811Z,52.85
2023-04-25T13:30:27.381Z,53.16
2023-04-25T13:35:29.034Z,53.94
2023-04-25T13:40:30.654Z,53.46
2023-04-25T13:45:33.571Z,53.06
2023-04-25T13:50:35.364Z,52.77
2023-04-25T13:55:39.998Z,51.47
2023-04-25T14:00:44.115Z,52.28
2023-04-25T14:05:45.816Z,51.18
2023-04-25T14:10:47.400Z,51.39
2023-04-25T14:15:49.094Z,50.24
2023-04-25T14:20:50.727Z,50.23
2023-04-25T14:25:52.320Z,50.19
2023-04-25T14:30:53.968Z,50.21
2023-04-25T14:35:55.900Z,50.49
2023-04-25T14:40:57.555Z,49.99
2023-04-25T14:45:59.116Z,49.34
2023-04-25T14:51:01.333Z,49.62
2023-04-25T14:56:02.950Z,50.16
2023-04-25T15:01:04.658Z,49.67
2023-04-25T15:06:07.232Z,49.74
2023-04-25T15:11:08.824Z,48.73
2023-04-25T15:16:11.190Z,46.75
2023-04-25T15:21:12.796Z,47.07
2023-04-25T15:26:14.422Z,47.09
2023-04-25T15:31:16.001Z,46.60
2023-04-25T15:36:19.328Z,46.90
2023-04-25T15:41:21.195Z,46.45
2023-04-25T15:46:23.744Z,47.08
2023-04-25T15:51:25.551Z,46.86
2023-04-25T15:56:27.222Z,46.97
2023-04-25T16:01:31.068Z,47.41
2023-04-25T16:06:33.072Z,47.75
2023-04-25T16:11:34.761Z,47.38
2023-04-25T16:16:36.401Z,47.49
2023-04-25T16:21:38.379Z,47.31
2023-04-25T16:26:43.648Z,46.38
2023-04-25T16:31:47.155Z,46.27
2023-04-25T16:36:49.581Z,46.21
2023-04-25T16:41:52.018Z,44.08
2023-04-25T16:46:53.765Z,41.55
2023-04-25T16:51:55.915Z,40.72
2023-04-25T16:56:58.209Z,41.44
2023-04-25T17:01:59.946Z,42.50
2023-04-25T17:07:01.654Z,43.07
2023-04-25T17:12:04.010Z,43.33
2023-04-25T17:17:05.772Z,44.09
2023-04-25T17:22:07.470Z,44.50
2023-04-25T17:27:09.178Z,44.41
2023-04-25T17:32:10.935Z,45.17
2023-04-25T17:37:16.127Z,45.73
2023-04-25T17:42:17.707Z,45.44
2023-04-25T17:47:19.286Z,46.64
2023-04-25T17:52:20.905Z,45.96
2023-04-25T17:57:24.305Z,46.29
2023-04-25T18:02:27.066Z,45.16
2023-04-25T18:07:28.806Z,45.29
2023-04-25T18:12:30.450Z,45.51
2023-04-25T18:17:33.901Z,45.63
2023-04-25T18:22:37.059Z,45.72
2023-04-25T18:27:39.709Z,46.21
2023-04-25T18:32:42.147Z,46.67
2023-04-25T18:37:44.313Z,47.19
2023-04-25T18:42:45.991Z,47.80
2023-04-25T18:47:47.981Z,48.59
2023-04-25T18:52:49.713Z,48.76
2023-04-25T18:57:51.763Z,49.07
2023-04-25T19:02:55.984Z,49.14
2023-04-25T19:07:58.721Z,49.55
2023-04-25T19:13:00.624Z,49.50
2023-04-25T19:18:02.796Z,49.92
2023-04-25T19:23:05.325Z,50.11
2023-04-25T19:28:08.639Z,50.46
2023-04-25T19:33:10.960Z,50.60
2023-04-25T19:38:14.945Z,51.18
2023-04-25T19:43:16.540Z,51.04
2023-04-25T19:48:18.296Z,51.43
2023-04-25T19:53:20.102Z,51.98
2023-04-25T19:58:21.807Z,51.87
2023-04-25T20:03:24.196Z,51.86
2023-04-25T20:08:26.295Z,52.60
2023-04-25T20:13:28.273Z,52.95
2023-04-25T20:18:29.874Z,52.96
2023-04-25T20:23:31.443Z,53.33
2023-04-25T20:28:33.144Z,52.85
2023-04-25T20:33:37.654Z,53.11
2023-04-25T20:38:39.230Z,53.67
2023-04-25T20:43:42.232Z,54.27
2023-04-25T20:48:43.856Z,54.40
2023-04-25T20:53:45.489Z,54.14
2023-04-25T20:58:47.363Z,54.27
2023-04-25T21:03:50.474Z,54.39
2023-04-25T21:08:52.679Z,54.76
2023-04-25T21:13:54.599Z,54.57
2023-04-25T21:18:56.309Z,54.50
2023-04-25T21:23:57.938Z,54.61
2023-04-25T21:28:59.596Z,54.55
2023-04-25T21:34:01.321Z,54.38
2023-04-25T21:39:03.088Z,54.40
2023-04-25T21:44:04.825Z,54.90
2023-04-25T21:49:06.968Z,54.81
2023-04-25T21:54:08.750Z,55.27
2023-04-25T21:59:10.416Z,55.11
2023-04-25T22:04:13.743Z,54.95
2023-04-25T22:09:16.345Z,54.78
2023-04-25T22:14:17.927Z,55.12
2023-04-25T22:19:19.531Z,55.08
2023-04-25T22:24:21.620Z,54.78
2023-04-25T22:29:23.765Z,55.39
2023-04-25T22:34:25.399Z,55.80
2023-04-25T22:39:26.954Z,56.34
2023-04-25T22:44:28.553Z,56.58
2023-04-25T22:49:30.310Z,57.06
2023-04-25T22:54:32.077Z,56.39
2023-04-25T22:59:36.172Z,57.24
2023-04-25T23:04:37.791Z,57.97
2023-04-25T23:09:41.052Z,58.38
2023-04-25T23:14:42.795Z,58.39
2023-04-25T23:19:45.243Z,58.04
2023-04-25T23:24:46.819Z,58.85
2023-04-25T23:29:54.808Z,58.95
2023-04-25T23:34:56.833Z,58.89
2023-04-25T23:39:58.564Z,59.22
2023-04-25T23:45:01.405Z,58.60
2023-04-25T23:50:03.617Z,59.67
2023-04-25T23:55:05.701Z,59.07
